sensor_id;sensor_type;location;lat;lon;timestamp;P1;durP1;ratioP1;P2;durP2;ratioP2
57599;SDS011;43426;43.594;24.334;2023-08-06T00:00:02;3.33;;;1.40;;
57599;SDS011;43426;43.594;24.334;2023-08-06T00:02:28;1.40;;;1.30;;
57599;SDS011;43426;43.594;24.334;2023-08-06T00:04:54;3.35;;;1.00;;
57599;SDS011;43426;43.594;24.334;2023-08-06T00:07:19;4.13;;;1.23;;
57599;SDS011;43426;43.594;24.334;2023-08-06T00:09:44;1.20;;;1.10;;
57599;SDS011;43426;43.594;24.334;2023-08-06T00:12:10;1.45;;;1.10;;
57599;SDS011;43426;43.594;24.334;2023-08-06T00:14:35;1.00;;;1.00;;
57599;SDS011;43426;43.594;24.334;2023-08-06T00:17:01;1.42;;;1.00;;
57599;SDS011;43426;43.594;24.334;2023-08-06T00:19:26;1.10;;;1.00;;
57599;SDS011;43426;43.594;24.334;2023-08-06T00:21:52;2.83;;;1.10;;
57599;SDS011;43426;43.594;24.334;2023-08-06T00:24:20;3.03;;;1.30;;
57599;SDS011;43426;43.594;24.334;2023-08-06T00:26:45;1.35;;;1.25;;
57599;SDS011;43426;43.594;24.334;2023-08-06T00:29:11;1.58;;;0.90;;
57599;SDS011;43426;43.594;24.334;2023-08-06T00:31:36;1.38;;;1.00;;
57599;SDS011;43426;43.594;24.334;2023-08-06T00:34:01;1.23;;;0.95;;
57599;SDS011;43426;43.594;24.334;2023-08-06T00:36:27;1.50;;;1.02;;
57599;SDS011;43426;43.594;24.334;2023-08-06T00:38:52;1.23;;;1.00;;
57599;SDS011;43426;43.594;24.334;2023-08-06T00:41:18;1.30;;;1.00;;
57599;SDS011;43426;43.594;24.334;2023-08-06T00:43:43;1.80;;;0.98;;
57599;SDS011;43426;43.594;24.334;2023-08-06T00:46:09;1.10;;;1.00;;
57599;SDS011;43426;43.594;24.334;2023-08-06T00:48:35;5.20;;;0.80;;
57599;SDS011;43426;43.594;24.334;2023-08-06T00:51:01;4.68;;;1.13;;
57599;SDS011;43426;43.594;24.334;2023-08-06T00:53:26;1.63;;;0.95;;
57599;SDS011;43426;43.594;24.334;2023-08-06T00:55:52;1.48;;;1.00;;
57599;SDS011;43426;43.594;24.334;2023-08-06T00:58:17;0.80;;;0.80;;
57599;SDS011;43426;43.594;24.334;2023-08-06T01:00:43;1.05;;;0.93;;
57599;SDS011;43426;43.594;24.334;2023-08-06T01:03:09;1.02;;;0.90;;
57599;SDS011;43426;43.594;24.334;2023-08-06T01:05:34;1.15;;;1.00;;
57599;SDS011;43426;43.594;24.334;2023-08-06T01:08:16;1.25;;;0.93;;
57599;SDS011;43426;43.594;24.334;2023-08-06T01:13:47;1.17;;;0.80;;
57599;SDS011;43426;43.594;24.334;2023-08-06T01:16:15;2.33;;;0.93;;
57599;SDS011;43426;43.594;24.334;2023-08-06T01:18:42;2.75;;;1.20;;
57599;SDS011;43426;43.594;24.334;2023-08-06T01:21:11;0.98;;;0.88;;
57599;SDS011;43426;43.594;24.334;2023-08-06T01:23:39;1.65;;;1.17;;
57599;SDS011;43426;43.594;24.334;2023-08-06T01:26:19;1.02;;;0.82;;
57599;SDS011;43426;43.594;24.334;2023-08-06T01:31:24;0.80;;;0.80;;
57599;SDS011;43426;43.594;24.334;2023-08-06T01:33:53;1.05;;;0.73;;
57599;SDS011;43426;43.594;24.334;2023-08-06T01:36:21;3.13;;;0.93;;
57599;SDS011;43426;43.594;24.334;2023-08-06T01:38:48;1.40;;;0.93;;
57599;SDS011;43426;43.594;24.334;2023-08-06T01:41:13;1.30;;;1.13;;
57599;SDS011;43426;43.594;24.334;2023-08-06T01:43:39;2.65;;;0.95;;
57599;SDS011;43426;43.594;24.334;2023-08-06T01:46:04;1.20;;;1.02;;
57599;SDS011;43426;43.594;24.334;2023-08-06T01:48:30;0.70;;;0.70;;
57599;SDS011;43426;43.594;24.334;2023-08-06T01:50:55;0.80;;;0.75;;
57599;SDS011;43426;43.594;24.334;2023-08-06T01:53:20;1.13;;;0.88;;
57599;SDS011;43426;43.594;24.334;2023-08-06T01:55:49;2.17;;;1.40;;
57599;SDS011;43426;43.594;24.334;2023-08-06T01:58:15;0.85;;;0.80;;
57599;SDS011;43426;43.594;24.334;2023-08-06T02:00:40;0.60;;;0.60;;
57599;SDS011;43426;43.594;24.334;2023-08-06T02:03:06;2.25;;;0.85;;
57599;SDS011;43426;43.594;24.334;2023-08-06T02:05:31;0.95;;;0.60;;
57599;SDS011;43426;43.594;24.334;2023-08-06T02:07:57;0.80;;;0.80;;
57599;SDS011;43426;43.594;24.334;2023-08-06T02:10:22;3.65;;;1.00;;
57599;SDS011;43426;43.594;24.334;2023-08-06T02:12:48;0.95;;;0.90;;
57599;SDS011;43426;43.594;24.334;2023-08-06T06:08:11;2.30;;;2.10;;
57599;SDS011;43426;43.594;24.334;2023-08-06T06:10:37;3.05;;;2.75;;
57599;SDS011;43426;43.594;24.334;2023-08-06T06:13:02;3.10;;;2.80;;
57599;SDS011;43426;43.594;24.334;2023-08-06T06:15:28;2.47;;;1.98;;
57599;SDS011;43426;43.594;24.334;2023-08-06T06:17:53;2.35;;;2.15;;
57599;SDS011;43426;43.594;24.334;2023-08-06T06:20:19;2.90;;;2.70;;
57599;SDS011;43426;43.594;24.334;2023-08-06T06:22:44;1.90;;;1.80;;
57599;SDS011;43426;43.594;24.334;2023-08-06T06:25:10;2.47;;;2.28;;
57599;SDS011;43426;43.594;24.334;2023-08-06T06:27:35;3.92;;;2.35;;
57599;SDS011;43426;43.594;24.334;2023-08-06T06:30:01;3.47;;;1.75;;
57599;SDS011;43426;43.594;24.334;2023-08-06T06:32:26;2.33;;;1.95;;
57599;SDS011;43426;43.594;24.334;2023-08-06T06:34:52;2.55;;;1.83;;
57599;SDS011;43426;43.594;24.334;2023-08-06T06:37:17;4.65;;;2.47;;
57599;SDS011;43426;43.594;24.334;2023-08-06T06:39:42;4.55;;;2.90;;
57599;SDS011;43426;43.594;24.334;2023-08-06T06:42:09;3.60;;;2.47;;
57599;SDS011;43426;43.594;24.334;2023-08-06T06:44:34;2.97;;;2.67;;
57599;SDS011;43426;43.594;24.334;2023-08-06T06:46:59;4.57;;;3.65;;
57599;SDS011;43426;43.594;24.334;2023-08-06T06:49:25;5.25;;;3.50;;
57599;SDS011;43426;43.594;24.334;2023-08-06T06:51:50;4.07;;;3.50;;
57599;SDS011;43426;43.594;24.334;2023-08-06T06:54:16;4.57;;;3.22;;
57599;SDS011;43426;43.594;24.334;2023-08-06T06:56:41;4.55;;;3.85;;
57599;SDS011;43426;43.594;24.334;2023-08-06T06:59:07;5.95;;;4.32;;
57599;SDS011;43426;43.594;24.334;2023-08-06T07:01:32;3.83;;;3.53;;
57599;SDS011;43426;43.594;24.334;2023-08-06T07:03:58;5.00;;;3.10;;
57599;SDS011;43426;43.594;24.334;2023-08-06T07:06:23;3.17;;;2.85;;
57599;SDS011;43426;43.594;24.334;2023-08-06T07:08:48;2.25;;;2.05;;
57599;SDS011;43426;43.594;24.334;2023-08-06T07:11:14;3.38;;;2.78;;
57599;SDS011;43426;43.594;24.334;2023-08-06T07:13:39;3.75;;;2.88;;
57599;SDS011;43426;43.594;24.334;2023-08-06T07:16:05;2.80;;;2.60;;
57599;SDS011;43426;43.594;24.334;2023-08-06T07:18:30;3.55;;;3.22;;
57599;SDS011;43426;43.594;24.334;2023-08-06T07:20:56;3.92;;;2.85;;
57599;SDS011;43426;43.594;24.334;2023-08-06T07:23:22;3.08;;;2.80;;
57599;SDS011;43426;43.594;24.334;2023-08-06T07:25:48;3.20;;;2.95;;
57599;SDS011;43426;43.594;24.334;2023-08-06T07:28:14;3.15;;;2.80;;
57599;SDS011;43426;43.594;24.334;2023-08-06T07:30:41;3.40;;;3.20;;
57599;SDS011;43426;43.594;24.334;2023-08-06T07:33:08;3.60;;;3.30;;
57599;SDS011;43426;43.594;24.334;2023-08-06T07:35:34;3.80;;;3.50;;
57599;SDS011;43426;43.594;24.334;2023-08-06T07:38:01;3.50;;;3.20;;
57599;SDS011;43426;43.594;24.334;2023-08-06T07:40:29;3.60;;;3.30;;
57599;SDS011;43426;43.594;24.334;2023-08-06T07:42:54;3.55;;;3.25;;
57599;SDS011;43426;43.594;24.334;2023-08-06T07:45:20;4.00;;;3.60;;
57599;SDS011;43426;43.594;24.334;2023-08-06T07:47:46;3.38;;;3.17;;
57599;SDS011;43426;43.594;24.334;2023-08-06T07:50:12;5.25;;;3.55;;
57599;SDS011;43426;43.594;24.334;2023-08-06T07:52:39;3.88;;;3.50;;
57599;SDS011;43426;43.594;24.334;2023-08-06T07:55:06;4.20;;;3.85;;
57599;SDS011;43426;43.594;24.334;2023-08-06T07:57:32;3.22;;;2.92;;
57599;SDS011;43426;43.594;24.334;2023-08-06T07:59:58;3.60;;;3.30;;
57599;SDS011;43426;43.594;24.334;2023-08-06T08:02:24;3.15;;;2.95;;
57599;SDS011;43426;43.594;24.334;2023-08-06T08:04:50;3.28;;;3.08;;
57599;SDS011;43426;43.594;24.334;2023-08-06T08:07:15;3.65;;;3.35;;
57599;SDS011;43426;43.594;24.334;2023-08-06T08:09:41;4.05;;;3.60;;
57599;SDS011;43426;43.594;24.334;2023-08-06T08:12:07;3.70;;;3.40;;
57599;SDS011;43426;43.594;24.334;2023-08-06T08:14:32;4.15;;;3.85;;
57599;SDS011;43426;43.594;24.334;2023-08-06T08:17:02;4.10;;;3.42;;
57599;SDS011;43426;43.594;24.334;2023-08-06T08:19:28;3.58;;;3.28;;
57599;SDS011;43426;43.594;24.334;2023-08-06T08:21:59;3.35;;;3.15;;
57599;SDS011;43426;43.594;24.334;2023-08-06T08:24:25;3.40;;;3.10;;
57599;SDS011;43426;43.594;24.334;2023-08-06T08:26:51;3.17;;;2.97;;
57599;SDS011;43426;43.594;24.334;2023-08-06T08:29:17;5.72;;;3.22;;
57599;SDS011;43426;43.594;24.334;2023-08-06T08:31:42;4.28;;;2.78;;
57599;SDS011;43426;43.594;24.334;2023-08-06T08:34:09;3.80;;;3.33;;
57599;SDS011;43426;43.594;24.334;2023-08-06T08:36:34;3.63;;;3.33;;
57599;SDS011;43426;43.594;24.334;2023-08-06T08:39:00;4.53;;;2.60;;
57599;SDS011;43426;43.594;24.334;2023-08-06T08:41:27;3.53;;;3.13;;
57599;SDS011;43426;43.594;24.334;2023-08-06T08:43:54;3.35;;;3.10;;
57599;SDS011;43426;43.594;24.334;2023-08-06T08:46:23;3.20;;;3.00;;
57599;SDS011;43426;43.594;24.334;2023-08-06T08:48:51;4.03;;;2.95;;
57599;SDS011;43426;43.594;24.334;2023-08-06T08:51:16;5.32;;;3.15;;
57599;SDS011;43426;43.594;24.334;2023-08-06T08:53:42;3.38;;;3.03;;
57599;SDS011;43426;43.594;24.334;2023-08-06T08:56:09;5.60;;;2.80;;
57599;SDS011;43426;43.594;24.334;2023-08-06T08:58:37;4.82;;;2.70;;
57599;SDS011;43426;43.594;24.334;2023-08-06T09:01:03;2.03;;;1.92;;
57599;SDS011;43426;43.594;24.334;2023-08-06T09:03:29;2.75;;;2.55;;
57599;SDS011;43426;43.594;24.334;2023-08-06T09:05:56;3.58;;;2.50;;
57599;SDS011;43426;43.594;24.334;2023-08-06T09:08:24;2.40;;;2.30;;
57599;SDS011;43426;43.594;24.334;2023-08-06T09:10:54;3.05;;;2.50;;
57599;SDS011;43426;43.594;24.334;2023-08-06T09:13:22;2.55;;;2.35;;
57599;SDS011;43426;43.594;24.334;2023-08-06T09:15:48;3.15;;;2.40;;
57599;SDS011;43426;43.594;24.334;2023-08-06T09:18:15;2.47;;;2.30;;
57599;SDS011;43426;43.594;24.334;2023-08-06T09:20:50;4.13;;;3.00;;
57599;SDS011;43426;43.594;24.334;2023-08-06T09:23:16;3.63;;;2.90;;
57599;SDS011;43426;43.594;24.334;2023-08-06T09:25:41;2.88;;;2.67;;
57599;SDS011;43426;43.594;24.334;2023-08-06T09:28:07;2.50;;;2.30;;
57599;SDS011;43426;43.594;24.334;2023-08-06T09:30:33;2.40;;;2.30;;
57599;SDS011;43426;43.594;24.334;2023-08-06T09:33:01;2.85;;;2.65;;
57599;SDS011;43426;43.594;24.334;2023-08-06T09:35:30;2.63;;;2.42;;
57599;SDS011;43426;43.594;24.334;2023-08-06T09:38:06;2.65;;;2.45;;
57599;SDS011;43426;43.594;24.334;2023-08-06T09:40:35;2.83;;;2.63;;
57599;SDS011;43426;43.594;24.334;2023-08-06T09:43:01;3.30;;;3.10;;
57599;SDS011;43426;43.594;24.334;2023-08-06T09:45:45;3.25;;;2.92;;
57599;SDS011;43426;43.594;24.334;2023-08-06T09:48:10;3.15;;;2.95;;
57599;SDS011;43426;43.594;24.334;2023-08-06T09:50:37;3.38;;;3.08;;
57599;SDS011;43426;43.594;24.334;2023-08-06T09:53:04;3.05;;;2.85;;
57599;SDS011;43426;43.594;24.334;2023-08-06T09:55:31;3.00;;;2.80;;
57599;SDS011;43426;43.594;24.334;2023-08-06T09:57:58;3.85;;;3.05;;
57599;SDS011;43426;43.594;24.334;2023-08-06T10:00:24;3.17;;;2.92;;
57599;SDS011;43426;43.594;24.334;2023-08-06T10:02:50;5.65;;;3.28;;
57599;SDS011;43426;43.594;24.334;2023-08-06T10:05:19;3.08;;;2.78;;
57599;SDS011;43426;43.594;24.334;2023-08-06T10:07:45;3.38;;;3.08;;
57599;SDS011;43426;43.594;24.334;2023-08-06T10:10:12;5.80;;;4.47;;
57599;SDS011;43426;43.594;24.334;2023-08-06T10:12:40;3.97;;;2.80;;
57599;SDS011;43426;43.594;24.334;2023-08-06T10:15:14;3.33;;;3.13;;
57599;SDS011;43426;43.594;24.334;2023-08-06T10:17:42;3.40;;;3.13;;
57599;SDS011;43426;43.594;24.334;2023-08-06T10:20:10;3.38;;;3.17;;
57599;SDS011;43426;43.594;24.334;2023-08-06T10:22:36;3.25;;;2.95;;
57599;SDS011;43426;43.594;24.334;2023-08-06T10:25:04;3.25;;;2.95;;
57599;SDS011;43426;43.594;24.334;2023-08-06T10:30:30;2.28;;;2.17;;
57599;SDS011;43426;43.594;24.334;2023-08-06T10:32:57;2.72;;;2.50;;
57599;SDS011;43426;43.594;24.334;2023-08-06T10:38:18;1.75;;;1.65;;
57599;SDS011;43426;43.594;24.334;2023-08-06T10:43:28;1.52;;;1.10;;
57599;SDS011;43426;43.594;24.334;2023-08-06T10:45:55;1.42;;;1.20;;
57599;SDS011;43426;43.594;24.334;2023-08-06T10:48:28;1.50;;;1.00;;
57599;SDS011;43426;43.594;24.334;2023-08-06T10:51:01;1.20;;;1.10;;
57599;SDS011;43426;43.594;24.334;2023-08-06T10:53:27;1.52;;;1.23;;
57599;SDS011;43426;43.594;24.334;2023-08-06T10:55:53;1.58;;;1.13;;
57599;SDS011;43426;43.594;24.334;2023-08-06T10:58:18;1.27;;;1.17;;
57599;SDS011;43426;43.594;24.334;2023-08-06T11:00:44;1.38;;;1.23;;
57599;SDS011;43426;43.594;24.334;2023-08-06T11:03:09;1.30;;;1.20;;
57599;SDS011;43426;43.594;24.334;2023-08-06T11:05:39;1.10;;;1.00;;
57599;SDS011;43426;43.594;24.334;2023-08-06T11:08:04;1.40;;;1.27;;
57599;SDS011;43426;43.594;24.334;2023-08-06T11:17:14;1.33;;;0.90;;
57599;SDS011;43426;43.594;24.334;2023-08-06T11:19:40;1.52;;;1.13;;
57599;SDS011;43426;43.594;24.334;2023-08-06T11:22:06;1.58;;;1.13;;
57599;SDS011;43426;43.594;24.334;2023-08-06T11:24:31;0.98;;;0.90;;
57599;SDS011;43426;43.594;24.334;2023-08-06T11:26:57;1.48;;;1.15;;
57599;SDS011;43426;43.594;24.334;2023-08-06T11:29:22;1.20;;;1.10;;
57599;SDS011;43426;43.594;24.334;2023-08-06T11:31:48;2.17;;;1.50;;
57599;SDS011;43426;43.594;24.334;2023-08-06T11:34:13;1.30;;;1.20;;
57599;SDS011;43426;43.594;24.334;2023-08-06T11:36:41;1.20;;;1.10;;
57599;SDS011;43426;43.594;24.334;2023-08-06T11:39:07;1.98;;;1.38;;
57599;SDS011;43426;43.594;24.334;2023-08-06T11:41:35;1.30;;;1.20;;
57599;SDS011;43426;43.594;24.334;2023-08-06T11:44:03;2.50;;;1.15;;
57599;SDS011;43426;43.594;24.334;2023-08-06T11:46:28;2.45;;;1.42;;
57599;SDS011;43426;43.594;24.334;2023-08-06T11:48:57;2.05;;;1.02;;
57599;SDS011;43426;43.594;24.334;2023-08-06T11:51:26;1.95;;;1.30;;
57599;SDS011;43426;43.594;24.334;2023-08-06T11:53:56;1.20;;;1.05;;
57599;SDS011;43426;43.594;24.334;2023-08-06T12:00:25;1.53;;;1.17;;
57599;SDS011;43426;43.594;24.334;2023-08-06T12:02:53;1.70;;;1.00;;
57599;SDS011;43426;43.594;24.334;2023-08-06T12:05:20;2.05;;;0.80;;
57599;SDS011;43426;43.594;24.334;2023-08-06T12:07:49;2.22;;;0.85;;
57599;SDS011;43426;43.594;24.334;2023-08-06T12:10:15;0.80;;;0.80;;
57599;SDS011;43426;43.594;24.334;2023-08-06T12:12:42;0.77;;;0.77;;
57599;SDS011;43426;43.594;24.334;2023-08-06T12:15:08;1.02;;;0.93;;
57599;SDS011;43426;43.594;24.334;2023-08-06T12:17:35;0.93;;;0.90;;
57599;SDS011;43426;43.594;24.334;2023-08-06T12:20:01;1.20;;;1.10;;
57599;SDS011;43426;43.594;24.334;2023-08-06T12:22:29;1.05;;;0.95;;
57599;SDS011;43426;43.594;24.334;2023-08-06T12:24:57;0.98;;;0.88;;
57599;SDS011;43426;43.594;24.334;2023-08-06T12:27:22;1.08;;;0.90;;
57599;SDS011;43426;43.594;24.334;2023-08-06T12:29:51;1.88;;;0.98;;
57599;SDS011;43426;43.594;24.334;2023-08-06T12:32:17;1.23;;;0.90;;
57599;SDS011;43426;43.594;24.334;2023-08-06T12:34:42;0.80;;;0.80;;
57599;SDS011;43426;43.594;24.334;2023-08-06T12:37:08;2.90;;;0.90;;
57599;SDS011;43426;43.594;24.334;2023-08-06T12:39:37;0.80;;;0.80;;
57599;SDS011;43426;43.594;24.334;2023-08-06T12:42:03;1.80;;;0.80;;
57599;SDS011;43426;43.594;24.334;2023-08-06T12:44:30;1.88;;;1.00;;
57599;SDS011;43426;43.594;24.334;2023-08-06T12:46:56;0.70;;;0.70;;
57599;SDS011;43426;43.594;24.334;2023-08-06T12:49:24;1.05;;;0.90;;
57599;SDS011;43426;43.594;24.334;2023-08-06T12:51:51;0.82;;;0.80;;
57599;SDS011;43426;43.594;24.334;2023-08-06T12:54:17;0.85;;;0.85;;
57599;SDS011;43426;43.594;24.334;2023-08-06T12:56:43;1.10;;;1.00;;
57599;SDS011;43426;43.594;24.334;2023-08-06T12:59:09;0.90;;;0.90;;
57599;SDS011;43426;43.594;24.334;2023-08-06T13:01:36;1.20;;;1.10;;
57599;SDS011;43426;43.594;24.334;2023-08-06T13:04:02;2.08;;;1.50;;
57599;SDS011;43426;43.594;24.334;2023-08-06T13:06:28;1.40;;;1.30;;
57599;SDS011;43426;43.594;24.334;2023-08-06T13:08:53;0.90;;;0.90;;
57599;SDS011;43426;43.594;24.334;2023-08-06T13:11:19;1.02;;;1.02;;
57599;SDS011;43426;43.594;24.334;2023-08-06T13:13:44;2.50;;;0.98;;
57599;SDS011;43426;43.594;24.334;2023-08-06T13:16:10;1.25;;;1.15;;
57599;SDS011;43426;43.594;24.334;2023-08-06T13:18:35;1.25;;;1.23;;
57599;SDS011;43426;43.594;24.334;2023-08-06T13:21:01;0.93;;;0.93;;
57599;SDS011;43426;43.594;24.334;2023-08-06T13:23:28;2.55;;;1.13;;
57599;SDS011;43426;43.594;24.334;2023-08-06T13:25:54;2.72;;;1.52;;
57599;SDS011;43426;43.594;24.334;2023-08-06T13:28:20;1.70;;;1.60;;
57599;SDS011;43426;43.594;24.334;2023-08-06T13:30:45;1.33;;;1.23;;
57599;SDS011;43426;43.594;24.334;2023-08-06T13:33:11;2.35;;;1.13;;
57599;SDS011;43426;43.594;24.334;2023-08-06T13:35:37;2.33;;;1.20;;
57599;SDS011;43426;43.594;24.334;2023-08-06T13:38:03;1.40;;;1.30;;
57599;SDS011;43426;43.594;24.334;2023-08-06T13:40:29;1.65;;;1.55;;
57599;SDS011;43426;43.594;24.334;2023-08-06T13:42:57;3.35;;;1.70;;
57599;SDS011;43426;43.594;24.334;2023-08-06T13:45:23;1.90;;;1.63;;
57599;SDS011;43426;43.594;24.334;2023-08-06T13:47:48;1.42;;;1.33;;
57599;SDS011;43426;43.594;24.334;2023-08-06T13:50:14;1.52;;;1.33;;
57599;SDS011;43426;43.594;24.334;2023-08-06T13:52:39;1.40;;;1.30;;
57599;SDS011;43426;43.594;24.334;2023-08-06T13:55:05;1.55;;;1.42;;
57599;SDS011;43426;43.594;24.334;2023-08-06T13:57:31;1.50;;;1.40;;
57599;SDS011;43426;43.594;24.334;2023-08-06T14:00:01;1.48;;;1.38;;
57599;SDS011;43426;43.594;24.334;2023-08-06T14:02:27;1.67;;;1.58;;
57599;SDS011;43426;43.594;24.334;2023-08-06T14:04:52;1.40;;;1.30;;
57599;SDS011;43426;43.594;24.334;2023-08-06T14:07:18;3.67;;;1.90;;
57599;SDS011;43426;43.594;24.334;2023-08-06T14:09:44;2.47;;;1.77;;
57599;SDS011;43426;43.594;24.334;2023-08-06T14:12:10;1.50;;;1.40;;
57599;SDS011;43426;43.594;24.334;2023-08-06T14:14:35;1.73;;;1.63;;
57599;SDS011;43426;43.594;24.334;2023-08-06T14:17:04;1.88;;;1.77;;
57599;SDS011;43426;43.594;24.334;2023-08-06T14:19:29;1.23;;;1.23;;
57599;SDS011;43426;43.594;24.334;2023-08-06T14:21:55;1.50;;;1.40;;
57599;SDS011;43426;43.594;24.334;2023-08-06T14:24:23;2.38;;;1.42;;
57599;SDS011;43426;43.594;24.334;2023-08-06T14:26:48;1.73;;;1.50;;
57599;SDS011;43426;43.594;24.334;2023-08-06T14:29:13;2.08;;;1.88;;
57599;SDS011;43426;43.594;24.334;2023-08-06T14:31:39;2.67;;;1.63;;
57599;SDS011;43426;43.594;24.334;2023-08-06T14:34:05;1.52;;;1.38;;
57599;SDS011;43426;43.594;24.334;2023-08-06T14:36:31;2.60;;;1.80;;
57599;SDS011;43426;43.594;24.334;2023-08-06T14:38:57;2.00;;;1.90;;
57599;SDS011;43426;43.594;24.334;2023-08-06T14:41:22;1.85;;;1.73;;
57599;SDS011;43426;43.594;24.334;2023-08-06T14:43:49;1.90;;;1.80;;
57599;SDS011;43426;43.594;24.334;2023-08-06T14:46:14;2.45;;;2.25;;
57599;SDS011;43426;43.594;24.334;2023-08-06T14:48:40;2.50;;;2.30;;
57599;SDS011;43426;43.594;24.334;2023-08-06T14:51:08;2.92;;;2.65;;
57599;SDS011;43426;43.594;24.334;2023-08-06T14:53:34;2.88;;;2.67;;
57599;SDS011;43426;43.594;24.334;2023-08-06T14:55:59;3.55;;;2.90;;
57599;SDS011;43426;43.594;24.334;2023-08-06T14:58:25;2.97;;;2.78;;
57599;SDS011;43426;43.594;24.334;2023-08-06T15:00:50;3.58;;;3.33;;
57599;SDS011;43426;43.594;24.334;2023-08-06T15:03:16;3.15;;;2.95;;
57599;SDS011;43426;43.594;24.334;2023-08-06T15:05:46;2.25;;;2.13;;
57599;SDS011;43426;43.594;24.334;2023-08-06T15:08:12;2.15;;;2.05;;
57599;SDS011;43426;43.594;24.334;2023-08-06T15:10:38;2.33;;;2.22;;
57599;SDS011;43426;43.594;24.334;2023-08-06T15:13:03;2.42;;;2.20;;
57599;SDS011;43426;43.594;24.334;2023-08-06T15:15:28;4.93;;;2.45;;
57599;SDS011;43426;43.594;24.334;2023-08-06T15:17:54;3.40;;;3.10;;
57599;SDS011;43426;43.594;24.334;2023-08-06T15:20:19;3.00;;;2.80;;
57599;SDS011;43426;43.594;24.334;2023-08-06T15:22:45;2.67;;;2.58;;
57599;SDS011;43426;43.594;24.334;2023-08-06T15:25:10;4.13;;;3.22;;
57599;SDS011;43426;43.594;24.334;2023-08-06T15:27:36;3.30;;;3.05;;
57599;SDS011;43426;43.594;24.334;2023-08-06T15:30:02;4.00;;;3.70;;
57599;SDS011;43426;43.594;24.334;2023-08-06T15:32:28;3.40;;;3.15;;
57599;SDS011;43426;43.594;24.334;2023-08-06T15:34:54;4.85;;;4.55;;
57599;SDS011;43426;43.594;24.334;2023-08-06T15:37:19;4.28;;;3.97;;
57599;SDS011;43426;43.594;24.334;2023-08-06T15:39:45;5.25;;;4.22;;
57599;SDS011;43426;43.594;24.334;2023-08-06T15:42:11;3.78;;;3.58;;
57599;SDS011;43426;43.594;24.334;2023-08-06T15:44:36;4.72;;;4.32;;
57599;SDS011;43426;43.594;24.334;2023-08-06T15:47:02;4.75;;;4.45;;
57599;SDS011;43426;43.594;24.334;2023-08-06T15:49:27;3.90;;;3.63;;
57599;SDS011;43426;43.594;24.334;2023-08-06T15:51:53;4.40;;;4.10;;
57599;SDS011;43426;43.594;24.334;2023-08-06T15:54:19;4.55;;;3.65;;
57599;SDS011;43426;43.594;24.334;2023-08-06T15:56:44;4.60;;;4.30;;
57599;SDS011;43426;43.594;24.334;2023-08-06T15:59:26;4.60;;;4.20;;
57599;SDS011;43426;43.594;24.334;2023-08-06T16:01:56;4.80;;;4.40;;
57599;SDS011;43426;43.594;24.334;2023-08-06T16:04:23;5.38;;;4.50;;
57599;SDS011;43426;43.594;24.334;2023-08-06T16:06:50;5.70;;;5.30;;
57599;SDS011;43426;43.594;24.334;2023-08-06T16:09:16;4.80;;;4.50;;
57599;SDS011;43426;43.594;24.334;2023-08-06T16:11:41;5.80;;;5.40;;
57599;SDS011;43426;43.594;24.334;2023-08-06T16:14:07;5.50;;;5.10;;
57599;SDS011;43426;43.594;24.334;2023-08-06T16:16:32;5.47;;;5.07;;
57599;SDS011;43426;43.594;24.334;2023-08-06T16:18:59;6.28;;;5.78;;
57599;SDS011;43426;43.594;24.334;2023-08-06T16:21:26;5.43;;;5.03;;
57599;SDS011;43426;43.594;24.334;2023-08-06T16:23:52;6.22;;;5.82;;
57599;SDS011;43426;43.594;24.334;2023-08-06T16:26:19;6.47;;;5.50;;
57599;SDS011;43426;43.594;24.334;2023-08-06T16:28:45;5.80;;;5.30;;
57599;SDS011;43426;43.594;24.334;2023-08-06T16:31:10;5.53;;;5.20;;
57599;SDS011;43426;43.594;24.334;2023-08-06T16:33:36;6.28;;;5.88;;
57599;SDS011;43426;43.594;24.334;2023-08-06T16:36:04;7.03;;;6.53;;
57599;SDS011;43426;43.594;24.334;2023-08-06T16:38:30;7.38;;;6.88;;
57599;SDS011;43426;43.594;24.334;2023-08-06T16:40:56;7.07;;;6.50;;
57599;SDS011;43426;43.594;24.334;2023-08-06T16:43:23;6.55;;;6.05;;
57599;SDS011;43426;43.594;24.334;2023-08-06T16:45:48;11.10;;;10.02;;
57599;SDS011;43426;43.594;24.334;2023-08-06T16:48:14;11.43;;;10.40;;
57599;SDS011;43426;43.594;24.334;2023-08-06T16:50:40;17.15;;;14.43;;
57599;SDS011;43426;43.594;24.334;2023-08-06T16:53:06;9.65;;;8.85;;
57599;SDS011;43426;43.594;24.334;2023-08-06T16:55:32;9.23;;;8.45;;
57599;SDS011;43426;43.594;24.334;2023-08-06T16:57:58;8.18;;;7.57;;
57599;SDS011;43426;43.594;24.334;2023-08-06T17:00:23;8.75;;;7.80;;
57599;SDS011;43426;43.594;24.334;2023-08-06T17:02:49;7.80;;;7.15;;
57599;SDS011;43426;43.594;24.334;2023-08-06T17:05:17;7.78;;;7.18;;
57599;SDS011;43426;43.594;24.334;2023-08-06T17:07:42;8.15;;;7.53;;
57599;SDS011;43426;43.594;24.334;2023-08-06T17:10:09;7.95;;;7.35;;
57599;SDS011;43426;43.594;24.334;2023-08-06T17:12:35;8.40;;;7.70;;
57599;SDS011;43426;43.594;24.334;2023-08-06T17:15:00;7.65;;;7.15;;
57599;SDS011;43426;43.594;24.334;2023-08-06T17:17:26;8.50;;;7.85;;
57599;SDS011;43426;43.594;24.334;2023-08-06T17:19:51;7.75;;;7.15;;
57599;SDS011;43426;43.594;24.334;2023-08-06T17:22:17;8.45;;;7.95;;
57599;SDS011;43426;43.594;24.334;2023-08-06T17:24:42;9.73;;;9.02;;
57599;SDS011;43426;43.594;24.334;2023-08-06T17:27:08;9.57;;;8.68;;
57599;SDS011;43426;43.594;24.334;2023-08-06T17:29:33;10.68;;;9.88;;
57599;SDS011;43426;43.594;24.334;2023-08-06T17:31:59;10.63;;;9.82;;
57599;SDS011;43426;43.594;24.334;2023-08-06T17:34:24;13.18;;;11.98;;
57599;SDS011;43426;43.594;24.334;2023-08-06T17:36:50;13.63;;;12.65;;
57599;SDS011;43426;43.594;24.334;2023-08-06T17:39:15;13.13;;;12.02;;
57599;SDS011;43426;43.594;24.334;2023-08-06T17:41:41;14.20;;;12.88;;
57599;SDS011;43426;43.594;24.334;2023-08-06T17:44:06;13.68;;;12.68;;
57599;SDS011;43426;43.594;24.334;2023-08-06T17:46:31;13.27;;;12.18;;
57599;SDS011;43426;43.594;24.334;2023-08-06T17:48:57;13.82;;;12.50;;
57599;SDS011;43426;43.594;24.334;2023-08-06T17:51:23;14.65;;;13.20;;
57599;SDS011;43426;43.594;24.334;2023-08-06T17:53:49;14.82;;;13.27;;
57599;SDS011;43426;43.594;24.334;2023-08-06T17:56:14;13.48;;;12.48;;
57599;SDS011;43426;43.594;24.334;2023-08-06T17:58:40;15.73;;;12.35;;
57599;SDS011;43426;43.594;24.334;2023-08-06T18:01:06;12.07;;;11.23;;
57599;SDS011;43426;43.594;24.334;2023-08-06T18:03:32;12.20;;;11.27;;
57599;SDS011;43426;43.594;24.334;2023-08-06T18:05:58;11.57;;;10.68;;
57599;SDS011;43426;43.594;24.334;2023-08-06T18:08:24;11.15;;;10.35;;
57599;SDS011;43426;43.594;24.334;2023-08-06T18:10:52;10.82;;;9.82;;
57599;SDS011;43426;43.594;24.334;2023-08-06T18:13:20;11.38;;;10.57;;
57599;SDS011;43426;43.594;24.334;2023-08-06T18:15:46;12.05;;;11.00;;
57599;SDS011;43426;43.594;24.334;2023-08-06T18:18:13;11.68;;;10.63;;
57599;SDS011;43426;43.594;24.334;2023-08-06T18:20:39;12.75;;;10.38;;
57599;SDS011;43426;43.594;24.334;2023-08-06T18:23:04;10.52;;;9.73;;
57599;SDS011;43426;43.594;24.334;2023-08-06T18:25:30;9.38;;;8.68;;
57599;SDS011;43426;43.594;24.334;2023-08-06T18:27:56;9.80;;;9.10;;
57599;SDS011;43426;43.594;24.334;2023-08-06T18:30:21;8.75;;;8.15;;
57599;SDS011;43426;43.594;24.334;2023-08-06T18:32:47;8.95;;;8.07;;
57599;SDS011;43426;43.594;24.334;2023-08-06T18:35:13;8.52;;;7.88;;
57599;SDS011;43426;43.594;24.334;2023-08-06T18:37:38;9.20;;;8.43;;
57599;SDS011;43426;43.594;24.334;2023-08-06T18:40:07;9.75;;;8.95;;
57599;SDS011;43426;43.594;24.334;2023-08-06T18:42:34;8.20;;;7.60;;
57599;SDS011;43426;43.594;24.334;2023-08-06T18:45:00;8.52;;;7.93;;